sensor_id;sensor_type;location;lat;lon;timestamp;temperature;humidity
57106;DHT22;61482;56.524;21.004;2022-08-01T12:53:46;19.10;99.90
57106;DHT22;61482;56.524;21.004;2022-08-01T12:56:16;19.20;99.90
57106;DHT22;62662;56.788;23.942;2022-08-01T12:58:44;19.30;99.90
57106;DHT22;62662;56.788;23.942;2022-08-01T13:01:25;19.30;99.90
57106;DHT22;62662;56.788;23.942;2022-08-01T13:05:59;19.20;99.90
57106;DHT22;62662;56.788;23.942;2022-08-01T13:08:31;19.10;99.90
57106;DHT22;62662;56.788;23.942;2022-08-01T13:11:02;19.20;99.90
57106;DHT22;62662;56.788;23.942;2022-08-01T13:13:41;19.10;99.90
57106;DHT22;62662;56.788;23.942;2022-08-01T13:16:10;19.10;99.90
57106;DHT22;62662;56.788;23.942;2022-08-01T13:18:48;19.00;99.90
57106;DHT22;62662;56.788;23.942;2022-08-01T13:21:22;18.80;99.90
57106;DHT22;62662;56.788;23.942;2022-08-01T13:24:12;18.80;99.90
57106;DHT22;62662;56.788;23.942;2022-08-01T13:26:51;18.80;99.90
57106;DHT22;62662;56.788;23.942;2022-08-01T13:31:59;18.70;99.90
57106;DHT22;62662;56.788;23.942;2022-08-01T13:34:33;18.80;99.90
57106;DHT22;62662;56.788;23.942;2022-08-01T13:37:03;18.70;99.90
57106;DHT22;62662;56.788;23.942;2022-08-01T13:39:30;18.70;99.90
57106;DHT22;62662;56.788;23.942;2022-08-01T13:42:12;18.80;99.90
57106;DHT22;62662;56.788;23.942;2022-08-01T13:44:45;18.70;99.90
57106;DHT22;62662;56.788;23.942;2022-08-01T13:47:20;18.60;99.90
57106;DHT22;62662;56.788;23.942;2022-08-01T13:50:01;18.60;99.90
57106;DHT22;62662;56.788;23.942;2022-08-01T13:52:30;18.60;99.90
57106;DHT22;62662;56.788;23.942;2022-08-01T13:54:58;18.70;99.90
57106;DHT22;62662;56.788;23.942;2022-08-01T13:57:26;18.80;99.90
57106;DHT22;62662;56.788;23.942;2022-08-01T14:00:05;18.70;99.90
57106;DHT22;62662;56.788;23.942;2022-08-01T14:02:33;18.80;99.90
57106;DHT22;62662;56.788;23.942;2022-08-01T14:05:01;18.80;99.90
57106;DHT22;62662;56.788;23.942;2022-08-01T14:07:28;18.70;99.90
57106;DHT22;62662;56.788;23.942;2022-08-01T14:09:57;18.70;99.90
57106;DHT22;62662;56.788;23.942;2022-08-01T14:12:44;18.70;99.90
57106;DHT22;62662;56.788;23.942;2022-08-01T14:15:13;18.70;99.90
57106;DHT22;62662;56.788;23.942;2022-08-01T14:18:00;18.80;99.90
57106;DHT22;62662;56.788;23.942;2022-08-01T14:20:28;18.80;99.90
57106;DHT22;62662;56.788;23.942;2022-08-01T14:22:55;18.80;99.90
57106;DHT22;62662;56.788;23.942;2022-08-01T14:25:24;18.80;99.90
57106;DHT22;62662;56.788;23.942;2022-08-01T14:28:11;18.70;99.90
57106;DHT22;62662;56.788;23.942;2022-08-01T14:30:41;18.60;99.90
57106;DHT22;62662;56.788;23.942;2022-08-01T14:33:10;18.70;99.90
57106;DHT22;62662;56.788;23.942;2022-08-01T14:35:41;18.60;99.90
57106;DHT22;62662;56.788;23.942;2022-08-01T14:38:31;18.40;99.90
57106;DHT22;62662;56.788;23.942;2022-08-01T14:41:00;18.40;99.90
57106;DHT22;62662;56.788;23.942;2022-08-01T14:43:30;18.40;99.90
57106;DHT22;62662;56.788;23.942;2022-08-01T14:46:00;18.40;99.90
57106;DHT22;62662;56.788;23.942;2022-08-01T14:48:33;18.40;99.90
57106;DHT22;62662;56.788;23.942;2022-08-01T14:51:00;18.30;99.90
57106;DHT22;62662;56.788;23.942;2022-08-01T14:53:30;18.30;99.90
57106;DHT22;62662;56.788;23.942;2022-08-01T14:56:03;18.20;99.90
57106;DHT22;62662;56.788;23.942;2022-08-01T14:58:35;18.20;99.90
57106;DHT22;62662;56.788;23.942;2022-08-01T15:01:03;18.10;99.90
57106;DHT22;62662;56.788;23.942;2022-08-01T15:03:32;18.10;99.90
57106;DHT22;62662;56.788;23.942;2022-08-01T15:06:00;18.20;99.90
57106;DHT22;62662;56.788;23.942;2022-08-01T15:08:30;18.20;99.90
57106;DHT22;62662;56.788;23.942;2022-08-01T15:10:59;18.30;99.90
57106;DHT22;62662;56.788;23.942;2022-08-01T15:13:29;18.20;99.90
57106;DHT22;62662;56.788;23.942;2022-08-01T15:15:59;18.20;99.90
57106;DHT22;62662;56.788;23.942;2022-08-01T15:18:27;18.30;99.90
57106;DHT22;62662;56.788;23.942;2022-08-01T15:20:55;18.40;99.90
57106;DHT22;62662;56.788;23.942;2022-08-01T15:23:27;18.40;99.90
57106;DHT22;62662;56.788;23.942;2022-08-01T15:25:55;18.20;99.90
57106;DHT22;62662;56.788;23.942;2022-08-01T15:28:25;18.20;99.90
57106;DHT22;62662;56.788;23.942;2022-08-01T15:30:53;18.30;99.90
57106;DHT22;62662;56.788;23.942;2022-08-01T15:33:20;18.30;99.90
57106;DHT22;62662;56.788;23.942;2022-08-01T15:35:48;18.20;99.90
57106;DHT22;62662;56.788;23.942;2022-08-01T15:38:18;18.20;99.90
57106;DHT22;62662;56.788;23.942;2022-08-01T15:40:46;18.30;99.90
57106;DHT22;62662;56.788;23.942;2022-08-01T15:43:13;18.30;99.90
57106;DHT22;62662;56.788;23.942;2022-08-01T15:45:41;18.40;99.90
57106;DHT22;62662;56.788;23.942;2022-08-01T15:48:15;18.50;99.90
57106;DHT22;62662;56.788;23.942;2022-08-01T15:50:52;18.50;99.90
57106;DHT22;62662;56.788;23.942;2022-08-01T15:53:23;18.50;99.90
57106;DHT22;62662;56.788;23.942;2022-08-01T15:55:51;18.50;99.90
57106;DHT22;62662;56.788;23.942;2022-08-01T15:58:35;18.50;99.90
57106;DHT22;62662;56.788;23.942;2022-08-01T16:01:03;18.50;99.90
57106;DHT22;62662;56.788;23.942;2022-08-01T16:03:32;18.50;99.90
57106;DHT22;62662;56.788;23.942;2022-08-01T16:06:04;18.50;99.90
57106;DHT22;62662;56.788;23.942;2022-08-01T16:08:34;18.50;99.90
57106;DHT22;62662;56.788;23.942;2022-08-01T16:11:02;18.60;99.90
57106;DHT22;62662;56.788;23.942;2022-08-01T16:13:32;18.50;99.90
57106;DHT22;62662;56.788;23.942;2022-08-01T16:16:02;18.60;99.90
57106;DHT22;62662;56.788;23.942;2022-08-01T16:18:35;18.50;99.90
57106;DHT22;62662;56.788;23.942;2022-08-01T16:21:03;18.40;99.90
57106;DHT22;62662;56.788;23.942;2022-08-01T16:23:34;18.30;99.90
57106;DHT22;62662;56.788;23.942;2022-08-01T16:26:10;18.20;99.90
57106;DHT22;62662;56.788;23.942;2022-08-01T16:28:53;18.10;99.90
57106;DHT22;62662;56.788;23.942;2022-08-01T16:31:21;18.10;99.90
57106;DHT22;62662;56.788;23.942;2022-08-01T16:34:12;18.10;99.90
57106;DHT22;62662;56.788;23.942;2022-08-01T16:36:42;18.10;99.90
57106;DHT22;62662;56.788;23.942;2022-08-01T16:39:12;18.00;99.90
57106;DHT22;62662;56.788;23.942;2022-08-01T16:41:46;18.10;99.90
57106;DHT22;62662;56.788;23.942;2022-08-01T16:44:23;18.00;99.90
57106;DHT22;62662;56.788;23.942;2022-08-01T16:47:00;17.90;99.90
57106;DHT22;62662;56.788;23.942;2022-08-01T16:49:28;17.90;99.90
57106;DHT22;62662;56.788;23.942;2022-08-01T16:52:00;17.90;99.90
57106;DHT22;62662;56.788;23.942;2022-08-01T16:54:29;17.80;99.90
57106;DHT22;62662;56.788;23.942;2022-08-01T16:56:56;17.80;99.90
57106;DHT22;62662;56.788;23.942;2022-08-01T16:59:35;17.80;99.90
57106;DHT22;62662;56.788;23.942;2022-08-01T17:02:08;17.80;99.90
57106;DHT22;62662;56.788;23.942;2022-08-01T17:04:41;17.90;99.90
57106;DHT22;62662;56.788;23.942;2022-08-01T17:07:15;17.90;99.90
57106;DHT22;62662;56.788;23.942;2022-08-01T17:09:43;17.80;99.90
57106;DHT22;62662;56.788;23.942;2022-08-01T17:12:10;17.80;99.90
57106;DHT22;62662;56.788;23.942;2022-08-01T17:14:48;17.70;99.90
57106;DHT22;62662;56.788;23.942;2022-08-01T17:17:16;17.80;99.90
57106;DHT22;62662;56.788;23.942;2022-08-01T17:19:44;17.70;99.90
57106;DHT22;62662;56.788;23.942;2022-08-01T17:22:14;17.70;99.90
57106;DHT22;62662;56.788;23.942;2022-08-01T17:24:41;17.70;99.90
57106;DHT22;62662;56.788;23.942;2022-08-01T17:27:09;17.60;99.90
57106;DHT22;62662;56.788;23.942;2022-08-01T17:29:41;17.60;99.90
57106;DHT22;62662;56.788;23.942;2022-08-01T17:32:11;17.60;99.90
57106;DHT22;62662;56.788;23.942;2022-08-01T17:34:41;17.60;99.90
57106;DHT22;62662;56.788;23.942;2022-08-01T17:37:12;17.50;99.90
57106;DHT22;62662;56.788;23.942;2022-08-01T17:39:42;17.40;99.90
57106;DHT22;62662;56.788;23.942;2022-08-01T17:42:14;17.50;99.90
57106;DHT22;62662;56.788;23.942;2022-08-01T17:44:43;17.50;99.90
57106;DHT22;62662;56.788;23.942;2022-08-01T17:47:18;17.50;99.90
57106;DHT22;62662;56.788;23.942;2022-08-01T17:50:10;17.40;99.90
57106;DHT22;62662;56.788;23.942;2022-08-01T17:52:38;17.50;99.90
57106;DHT22;62662;56.788;23.942;2022-08-01T17:55:07;17.40;99.90
57106;DHT22;62662;56.788;23.942;2022-08-01T17:57:58;17.40;99.90
57106;DHT22;62662;56.788;23.942;2022-08-01T18:00:26;17.40;99.90
57106;DHT22;62662;56.788;23.942;2022-08-01T18:02:57;17.40;99.90
57106;DHT22;62662;56.788;23.942;2022-08-01T18:05:24;17.50;99.90
57106;DHT22;62662;56.788;23.942;2022-08-01T18:08:04;17.40;99.90
57106;DHT22;62662;56.788;23.942;2022-08-01T18:10:33;17.40;99.90
57106;DHT22;62662;56.788;23.942;2022-08-01T18:13:05;17.30;99.90
57106;DHT22;62662;56.788;23.942;2022-08-01T18:15:36;17.30;99.90
57106;DHT22;62662;56.788;23.942;2022-08-01T18:18:08;17.40;99.90
57106;DHT22;62662;56.788;23.942;2022-08-01T18:20:46;17.40;99.90
57106;DHT22;62662;56.788;23.942;2022-08-01T18:23:15;17.40;99.90
57106;DHT22;62662;56.788;23.942;2022-08-01T18:25:43;17.40;99.90
57106;DHT22;62662;56.788;23.942;2022-08-01T18:28:11;17.40;99.90
57106;DHT22;62662;56.788;23.942;2022-08-01T18:30:56;17.30;99.90
57106;DHT22;62662;56.788;23.942;2022-08-01T18:33:24;17.30;99.90
57106;DHT22;62662;56.788;23.942;2022-08-01T18:35:52;17.30;99.90
57106;DHT22;62662;56.788;23.942;2022-08-01T18:38:29;17.30;99.90
57106;DHT22;62662;56.788;23.942;2022-08-01T18:41:08;17.40;99.90
57106;DHT22;62662;56.788;23.942;2022-08-01T18:43:36;17.40;99.90
57106;DHT22;62662;56.788;23.942;2022-08-01T18:46:06;17.40;99.90
57106;DHT22;62662;56.788;23.942;2022-08-01T18:48:34;17.30;99.90
57106;DHT22;62662;56.788;23.942;2022-08-01T18:51:01;17.30;99.90
57106;DHT22;62662;56.788;23.942;2022-08-01T18:53:28;17.20;99.90
57106;DHT22;62662;56.788;23.942;2022-08-01T18:55:56;17.20;99.90
57106;DHT22;62662;56.788;23.942;2022-08-01T18:58:24;17.10;99.90
57106;DHT22;62662;56.788;23.942;2022-08-01T19:00:52;17.10;99.90
57106;DHT22;62662;56.788;23.942;2022-08-01T19:03:20;17.20;99.90
57106;DHT22;62662;56.788;23.942;2022-08-01T19:05:48;17.10;99.90
57106;DHT22;62662;56.788;23.942;2022-08-01T19:08:16;17.10;99.90
57106;DHT22;62662;56.788;23.942;2022-08-01T19:10:44;17.10;99.90
57106;DHT22;62662;56.788;23.942;2022-08-01T19:13:11;17.20;99.90
57106;DHT22;62662;56.788;23.942;2022-08-01T19:15:39;17.20;99.90
57106;DHT22;62662;56.788;23.942;2022-08-01T19:18:09;17.00;99.90
57106;DHT22;62662;56.788;23.942;2022-08-01T19:20:39;17.20;99.90
57106;DHT22;62662;56.788;23.942;2022-08-01T19:23:08;17.20;99.90
57106;DHT22;62662;56.788;23.942;2022-08-01T19:25:55;17.20;99.90
57106;DHT22;62662;56.788;23.942;2022-08-01T19:28:26;17.20;99.90
57106;DHT22;62662;56.788;23.942;2022-08-01T19:30:54;17.30;99.90
57106;DHT22;62662;56.788;23.942;2022-08-01T19:33:23;17.20;99.90
57106;DHT22;62662;56.788;23.942;2022-08-01T19:35:52;17.20;99.90
57106;DHT22;62662;56.788;23.942;2022-08-01T19:38:20;17.20;99.90
57106;DHT22;62662;56.788;23.942;2022-08-01T19:40:48;17.20;99.90
57106;DHT22;62662;56.788;23.942;2022-08-01T19:43:19;17.20;99.90
57106;DHT22;62662;56.788;23.942;2022-08-01T19:45:49;17.20;99.90
57106;DHT22;62662;56.788;23.942;2022-08-01T19:48:18;17.30;99.90
57106;DHT22;62662;56.788;23.942;2022-08-01T19:50:48;17.20;99.90
57106;DHT22;62662;56.788;23.942;2022-08-01T19:53:17;17.20;99.90
57106;DHT22;62662;56.788;23.942;2022-08-01T19:55:50;17.20;99.90
57106;DHT22;62662;56.788;23.942;2022-08-01T19:58:21;17.30;99.90
57106;DHT22;62662;56.788;23.942;2022-08-01T20:00:53;17.30;99.90
57106;DHT22;62662;56.788;23.942;2022-08-01T20:03:22;17.20;99.90
57106;DHT22;62662;56.788;23.942;2022-08-01T20:05:50;17.20;99.90
57106;DHT22;62662;56.788;23.942;2022-08-01T20:08:18;17.10;99.90
57106;DHT22;62662;56.788;23.942;2022-08-01T20:10:49;17.20;99.90
57106;DHT22;62662;56.788;23.942;2022-08-01T20:13:18;17.00;99.90
57106;DHT22;62662;56.788;23.942;2022-08-01T20:15:45;17.10;99.90
57106;DHT22;62662;56.788;23.942;2022-08-01T20:18:13;17.00;99.90
57106;DHT22;62662;56.788;23.942;2022-08-01T20:20:47;16.90;99.90
57106;DHT22;62662;56.788;23.942;2022-08-01T20:23:17;16.80;99.90
57106;DHT22;62662;56.788;23.942;2022-08-01T20:25:49;16.70;99.90
57106;DHT22;62662;56.788;23.942;2022-08-01T20:28:22;16.60;99.90
57106;DHT22;62662;56.788;23.942;2022-08-01T20:30:56;16.40;99.90
57106;DHT22;62662;56.788;23.942;2022-08-01T20:33:33;16.40;99.90
57106;DHT22;62662;56.788;23.942;2022-08-01T20:36:01;16.30;99.90
57106;DHT22;62662;56.788;23.942;2022-08-01T20:38:41;16.20;99.90
57106;DHT22;62662;56.788;23.942;2022-08-01T20:41:09;16.20;99.90
57106;DHT22;62662;56.788;23.942;2022-08-01T20:43:37;16.20;99.90
57106;DHT22;62662;56.788;23.942;2022-08-01T20:46:04;16.10;99.90
57106;DHT22;62662;56.788;23.942;2022-08-01T20:48:34;16.00;99.90
57106;DHT22;62662;56.788;23.942;2022-08-01T20:51:02;16.00;99.90
57106;DHT22;62662;56.788;23.942;2022-08-01T20:53:46;16.00;99.90
57106;DHT22;62662;56.788;23.942;2022-08-01T20:56:36;15.90;99.90
57106;DHT22;62662;56.788;23.942;2022-08-01T21:01:35;15.80;99.90
57106;DHT22;62662;56.788;23.942;2022-08-01T21:04:46;15.80;99.90
57106;DHT22;62662;56.788;23.942;2022-08-01T21:10:01;15.80;99.90
57106;DHT22;62662;56.788;23.942;2022-08-01T21:13:00;15.70;99.90
57106;DHT22;62662;56.788;23.942;2022-08-01T21:15:39;15.60;99.90
57106;DHT22;62662;56.788;23.942;2022-08-01T21:18:37;15.60;99.90
57106;DHT22;62662;56.788;23.942;2022-08-01T21:21:16;15.60;99.90
57106;DHT22;62662;56.788;23.942;2022-08-01T21:24:04;15.60;99.90
57106;DHT22;62662;56.788;23.942;2022-08-01T21:26:34;15.60;99.90
57106;DHT22;62662;56.788;23.942;2022-08-01T21:29:05;15.60;99.90
57106;DHT22;62662;56.788;23.942;2022-08-01T21:31:34;15.70;99.90
57106;DHT22;62662;56.788;23.942;2022-08-01T21:34:07;15.70;99.90
57106;DHT22;62662;56.788;23.942;2022-08-01T21:36:35;15.80;99.90
57106;DHT22;62662;56.788;23.942;2022-08-01T21:39:04;15.90;99.90
57106;DHT22;62662;56.788;23.942;2022-08-01T21:41:32;15.90;99.90
57106;DHT22;62662;56.788;23.942;2022-08-01T21:44:23;15.90;99.90
57106;DHT22;62662;56.788;23.942;2022-08-01T21:46:58;15.90;99.90
57106;DHT22;62662;56.788;23.942;2022-08-01T21:49:26;16.00;99.90
57106;DHT22;62662;56.788;23.942;2022-08-01T21:52:18;15.90;99.90
57106;DHT22;62662;56.788;23.942;2022-08-01T21:55:03;16.00;99.90
57106;DHT22;62662;56.788;23.942;2022-08-01T21:58:16;16.10;99.90
57106;DHT22;62662;56.788;23.942;2022-08-01T22:00:51;16.10;99.90
57106;DHT22;62662;56.788;23.942;2022-08-01T22:03:36;16.10;99.90
57106;DHT22;62662;56.788;23.942;2022-08-01T22:06:06;16.20;99.90
57106;DHT22;62662;56.788;23.942;2022-08-01T22:08:35;16.10;99.90
57106;DHT22;62662;56.788;23.942;2022-08-01T22:11:06;16.10;99.90
57106;DHT22;62662;56.788;23.942;2022-08-01T22:13:34;16.10;99.90
57106;DHT22;62662;56.788;23.942;2022-08-01T22:16:04;16.10;99.90
57106;DHT22;62662;56.788;23.942;2022-08-01T22:18:32;16.00;99.90
57106;DHT22;62662;56.788;23.942;2022-08-01T22:21:02;15.90;99.90
57106;DHT22;62662;56.788;23.942;2022-08-01T22:23:33;16.00;99.90
57106;DHT22;62662;56.788;23.942;2022-08-01T22:26:05;16.00;99.90
57106;DHT22;62662;56.788;23.942;2022-08-01T22:28:34;16.00;99.90
57106;DHT22;62662;56.788;23.942;2022-08-01T22:31:02;16.00;99.90
57106;DHT22;62662;56.788;23.942;2022-08-01T22:33:30;16.00;99.90
57106;DHT22;62662;56.788;23.942;2022-08-01T22:35:59;16.10;99.90
57106;DHT22;62662;56.788;23.942;2022-08-01T22:38:28;16.10;99.90
57106;DHT22;62662;56.788;23.942;2022-08-01T22:43:45;16.10;99.90
57106;DHT22;62662;56.788;23.942;2022-08-01T22:51:51;15.90;99.90
57106;DHT22;62662;56.788;23.942;2022-08-01T22:54:29;15.80;99.90
57106;DHT22;62662;56.788;23.942;2022-08-01T22:57:04;15.90;99.90
57106;DHT22;62662;56.788;23.942;2022-08-01T22:59:48;16.00;99.90
57106;DHT22;62662;56.788;23.942;2022-08-01T23:02:21;15.90;99.90
57106;DHT22;62662;56.788;23.942;2022-08-01T23:04:49;16.00;99.90
57106;DHT22;62662;56.788;23.942;2022-08-01T23:07:23;15.90;99.90
57106;DHT22;62662;56.788;23.942;2022-08-01T23:09:51;15.90;99.90
57106;DHT22;62662;56.788;23.942;2022-08-01T23:12:23;15.80;99.90
57106;DHT22;62662;56.788;23.942;2022-08-01T23:14:56;15.70;99.90
57106;DHT22;62662;56.788;23.942;2022-08-01T23:17:25;15.70;99.90
57106;DHT22;62662;56.788;23.942;2022-08-01T23:20:00;15.60;99.90
57106;DHT22;62662;56.788;23.942;2022-08-01T23:22:29;15.40;99.90
57106;DHT22;62662;56.788;23.942;2022-08-01T23:24:59;15.30;99.90
57106;DHT22;62662;56.788;23.942;2022-08-01T23:27:33;15.10;99.90
57106;DHT22;62662;56.788;23.942;2022-08-01T23:30:23;14.90;99.90
57106;DHT22;62662;56.788;23.942;2022-08-01T23:32:51;14.90;99.90
57106;DHT22;62662;56.788;23.942;2022-08-01T23:35:18;14.90;99.90
57106;DHT22;62662;56.788;23.942;2022-08-01T23:37:45;14.80;99.90
57106;DHT22;62662;56.788;23.942;2022-08-01T23:40:12;14.90;99.90
57106;DHT22;62662;56.788;23.942;2022-08-01T23:42:39;14.80;99.90
57106;DHT22;62662;56.788;23.942;2022-08-01T23:45:07;14.70;99.90
57106;DHT22;62662;56.788;23.942;2022-08-01T23:47:34;14.90;99.90
57106;DHT22;62662;56.788;23.942;2022-08-01T23:50:01;14.90;99.90
57106;DHT22;62662;56.788;23.942;2022-08-01T23:52:28;14.80;99.90
57106;DHT22;62662;56.788;23.942;2022-08-01T23:54:59;14.80;99.90
57106;DHT22;62662;56.788;23.942;2022-08-01T23:57:40;14.80;99.90
